Terminal Aerodrome Forecast
Issued by NWS Pueblo, CO

Home | Current Version | Previous Version | Text Only | Print | Product List | Glossary On
Versions: 1 2 3 4 5 6 7 8 9 10 11 12 13 14 15 16 17 18 19 20
000
FTUS45 KPUB 310538
TAFCOS
TAF
KCOS 310538Z 3106/0106 VRB06KT P6SM FEW030 SCT080 BKN130
     FM311700 14010KT P6SM VCTS FEW050CB SCT100 SCT150
     FM010300 VRB06KT P6SM FEW050 SCT100 BKN130=

USA.gov is the U.S. government's official web portal to all federal, state and local government web resources and services.